If you wish to contribute or participate in the discussions about articles you are invited to join SKYbrary as a registered user

 Actions

Moree Airport

From SKYbrary Wiki

YMOR
Airport
ICAO: YMOR – IATA: MRZ
Summary
Name Moree Airport
Region Asia and Pacific
Territory Australia AU.gif
Location Moree, New South Wales
Serving Moree
Elevation 213.665 m
701 ft
701 ft213.665 m
Coordinates 29° 29' 51.67" S, 149° 50' 34.86" E
Runways
Designator Length Width Surface ROPS
1/19 1613 m5,291.995 ft
30 m98.425 ft
ASP yes/yes
5/23 977 m3,205.381 ft
18 m59.055 ft
GVL yes/yes


METAR
Observation YMOR 180900Z AUTO 25006KT 9999 // NCD 22/M14 Q1016
Station Moree Airport
Date/Time 18 October 2019 09:00:00
Wind direction 250°
Wind speed 06 kts
Lowest cloud amount no clouds detected
Temperature 22°C
Dew point
Humidity 7%
QNH 1016 hPa
Weather condition n/a

Moree Airport is an airport in Moree, New South Wales, Australia. The airport is 5 km2.7 nm
5,000 m
16,404.199 ft
from the city center.

Climatology

Humid “subtropical” climate (Köppen climate classification Cfa)

Maps

Terrain

Loading map...

Airport Layout

Loading map...


Accidents & Serious Incidents at or in vicinity of YMOR

None on SKYbrary